sensor_id;sensor_type;location;lat;lon;timestamp;P1;durP1;ratioP1;P2;durP2;ratioP2
5379;SDS011;2713;42.680;23.310;2024-01-30T00:00:05;3.95;;;3.65;;
5379;SDS011;2713;42.680;23.310;2024-01-30T00:02:34;4.65;;;3.90;;
5379;SDS011;2713;42.680;23.310;2024-01-30T00:05:01;4.07;;;3.60;;
5379;SDS011;2713;42.680;23.310;2024-01-30T00:07:30;4.57;;;3.42;;
5379;SDS011;2713;42.680;23.310;2024-01-30T00:09:56;4.43;;;4.03;;
5379;SDS011;2713;42.680;23.310;2024-01-30T00:12:23;3.00;;;2.80;;
5379;SDS011;2713;42.680;23.310;2024-01-30T00:14:51;3.80;;;3.30;;
5379;SDS011;2713;42.680;23.310;2024-01-30T00:17:17;4.50;;;4.03;;
5379;SDS011;2713;42.680;23.310;2024-01-30T00:19:46;3.65;;;3.20;;
5379;SDS011;2713;42.680;23.310;2024-01-30T00:22:12;3.72;;;3.40;;
5379;SDS011;2713;42.680;23.310;2024-01-30T00:24:40;3.60;;;3.30;;
5379;SDS011;2713;42.680;23.310;2024-01-30T00:27:07;3.40;;;3.13;;
5379;SDS011;2713;42.680;23.310;2024-01-30T00:29:34;3.65;;;3.35;;
5379;SDS011;2713;42.680;23.310;2024-01-30T00:32:01;3.72;;;3.35;;
5379;SDS011;2713;42.680;23.310;2024-01-30T00:34:28;4.63;;;3.90;;
5379;SDS011;2713;42.680;23.310;2024-01-30T00:36:55;4.10;;;3.70;;
5379;SDS011;2713;42.680;23.310;2024-01-30T00:39:21;4.15;;;3.70;;
5379;SDS011;2713;42.680;23.310;2024-01-30T00:41:49;4.00;;;3.60;;
5379;SDS011;2713;42.680;23.310;2024-01-30T00:44:16;4.38;;;3.45;;
5379;SDS011;2713;42.680;23.310;2024-01-30T00:46:43;3.72;;;3.28;;
5379;SDS011;2713;42.680;23.310;2024-01-30T00:49:10;4.18;;;3.67;;
5379;SDS011;2713;42.680;23.310;2024-01-30T00:51:37;6.75;;;3.75;;
5379;SDS011;2713;42.680;23.310;2024-01-30T00:54:03;4.80;;;3.72;;
5379;SDS011;2713;42.680;23.310;2024-01-30T00:56:31;4.28;;;3.35;;
5379;SDS011;2713;42.680;23.310;2024-01-30T00:58:59;4.18;;;3.33;;
5379;SDS011;2713;42.680;23.310;2024-01-30T01:01:26;4.20;;;3.90;;
5379;SDS011;2713;42.680;23.310;2024-01-30T01:03:53;3.80;;;3.50;;
5379;SDS011;2713;42.680;23.310;2024-01-30T01:06:19;4.93;;;4.30;;
5379;SDS011;2713;42.680;23.310;2024-01-30T01:08:45;4.63;;;3.83;;
5379;SDS011;2713;42.680;23.310;2024-01-30T01:11:12;4.07;;;3.78;;
5379;SDS011;2713;42.680;23.310;2024-01-30T01:13:39;4.05;;;3.75;;
5379;SDS011;2713;42.680;23.310;2024-01-30T01:16:07;4.72;;;4.25;;
5379;SDS011;2713;42.680;23.310;2024-01-30T01:18:34;5.13;;;4.30;;
5379;SDS011;2713;42.680;23.310;2024-01-30T01:21:01;4.60;;;4.00;;
5379;SDS011;2713;42.680;23.310;2024-01-30T01:23:27;4.53;;;4.05;;
5379;SDS011;2713;42.680;23.310;2024-01-30T01:25:54;4.10;;;3.78;;
5379;SDS011;2713;42.680;23.310;2024-01-30T01:28:21;3.92;;;3.58;;
5379;SDS011;2713;42.680;23.310;2024-01-30T01:30:48;4.65;;;3.75;;
5379;SDS011;2713;42.680;23.310;2024-01-30T01:33:16;5.45;;;3.80;;
5379;SDS011;2713;42.680;23.310;2024-01-30T01:35:43;4.75;;;3.70;;
5379;SDS011;2713;42.680;23.310;2024-01-30T01:38:10;4.30;;;3.80;;
5379;SDS011;2713;42.680;23.310;2024-01-30T01:40:37;4.20;;;3.80;;
5379;SDS011;2713;42.680;23.310;2024-01-30T01:43:05;4.20;;;3.80;;
5379;SDS011;2713;42.680;23.310;2024-01-30T01:45:32;5.47;;;3.58;;
5379;SDS011;2713;42.680;23.310;2024-01-30T01:47:59;4.15;;;3.53;;
5379;SDS011;2713;42.680;23.310;2024-01-30T01:50:27;4.55;;;3.55;;
5379;SDS011;2713;42.680;23.310;2024-01-30T01:52:54;4.00;;;3.70;;
5379;SDS011;2713;42.680;23.310;2024-01-30T01:55:21;3.50;;;3.15;;
5379;SDS011;2713;42.680;23.310;2024-01-30T01:57:50;2.80;;;2.60;;
5379;SDS011;2713;42.680;23.310;2024-01-30T02:00:18;4.53;;;3.67;;
5379;SDS011;2713;42.680;23.310;2024-01-30T02:02:46;3.85;;;3.55;;
5379;SDS011;2713;42.680;23.310;2024-01-30T02:05:14;3.65;;;3.25;;
5379;SDS011;2713;42.680;23.310;2024-01-30T02:07:42;4.28;;;3.88;;
5379;SDS011;2713;42.680;23.310;2024-01-30T02:10:09;4.25;;;3.55;;
5379;SDS011;2713;42.680;23.310;2024-01-30T02:12:36;3.92;;;3.28;;
5379;SDS011;2713;42.680;23.310;2024-01-30T02:15:03;4.95;;;4.05;;
5379;SDS011;2713;42.680;23.310;2024-01-30T02:17:32;3.63;;;3.33;;
5379;SDS011;2713;42.680;23.310;2024-01-30T02:19:59;3.92;;;3.63;;
5379;SDS011;2713;42.680;23.310;2024-01-30T02:22:27;4.20;;;3.75;;
5379;SDS011;2713;42.680;23.310;2024-01-30T02:24:54;3.92;;;3.40;;
5379;SDS011;2713;42.680;23.310;2024-01-30T02:27:21;4.32;;;3.92;;
5379;SDS011;2713;42.680;23.310;2024-01-30T02:29:47;3.37;;;3.10;;
5379;SDS011;2713;42.680;23.310;2024-01-30T02:32:13;3.40;;;3.10;;
5379;SDS011;2713;42.680;23.310;2024-01-30T02:34:40;3.72;;;3.33;;
5379;SDS011;2713;42.680;23.310;2024-01-30T02:37:07;4.15;;;3.63;;
5379;SDS011;2713;42.680;23.310;2024-01-30T02:39:35;4.13;;;3.72;;
5379;SDS011;2713;42.680;23.310;2024-01-30T02:42:02;4.20;;;3.45;;
5379;SDS011;2713;42.680;23.310;2024-01-30T02:44:28;3.25;;;2.95;;
5379;SDS011;2713;42.680;23.310;2024-01-30T02:46:55;3.60;;;3.30;;
5379;SDS011;2713;42.680;23.310;2024-01-30T02:49:22;4.07;;;3.67;;
5379;SDS011;2713;42.680;23.310;2024-01-30T02:51:49;3.40;;;3.10;;
5379;SDS011;2713;42.680;23.310;2024-01-30T02:54:16;3.30;;;3.00;;
5379;SDS011;2713;42.680;23.310;2024-01-30T02:56:44;4.25;;;3.35;;
5379;SDS011;2713;42.680;23.310;2024-01-30T02:59:10;3.00;;;2.80;;
5379;SDS011;2713;42.680;23.310;2024-01-30T03:01:43;3.95;;;3.50;;
5379;SDS011;2713;42.680;23.310;2024-01-30T03:04:10;3.55;;;3.08;;
5379;SDS011;2713;42.680;23.310;2024-01-30T03:06:37;3.92;;;3.55;;
5379;SDS011;2713;42.680;23.310;2024-01-30T03:09:04;3.60;;;3.30;;
5379;SDS011;2713;42.680;23.310;2024-01-30T03:11:30;3.58;;;3.28;;
5379;SDS011;2713;42.680;23.310;2024-01-30T03:13:58;4.38;;;2.95;;
5379;SDS011;2713;42.680;23.310;2024-01-30T03:16:25;3.28;;;3.00;;
5379;SDS011;2713;42.680;23.310;2024-01-30T03:18:52;2.90;;;2.70;;
5379;SDS011;2713;42.680;23.310;2024-01-30T03:21:19;3.03;;;2.72;;
5379;SDS011;2713;42.680;23.310;2024-01-30T03:23:45;3.00;;;2.80;;
5379;SDS011;2713;42.680;23.310;2024-01-30T03:26:12;3.20;;;2.90;;
5379;SDS011;2713;42.680;23.310;2024-01-30T03:28:40;2.92;;;2.63;;
5379;SDS011;2713;42.680;23.310;2024-01-30T03:31:08;2.90;;;2.70;;
5379;SDS011;2713;42.680;23.310;2024-01-30T03:33:36;3.17;;;2.97;;
5379;SDS011;2713;42.680;23.310;2024-01-30T03:36:03;2.83;;;2.60;;
5379;SDS011;2713;42.680;23.310;2024-01-30T03:38:30;3.95;;;2.90;;
5379;SDS011;2713;42.680;23.310;2024-01-30T03:40:59;3.95;;;2.78;;
5379;SDS011;2713;42.680;23.310;2024-01-30T03:43:25;3.17;;;2.70;;
5379;SDS011;2713;42.680;23.310;2024-01-30T03:45:52;3.22;;;2.92;;
5379;SDS011;2713;42.680;23.310;2024-01-30T03:48:21;2.42;;;2.22;;
5379;SDS011;2713;42.680;23.310;2024-01-30T03:50:47;2.22;;;2.13;;
5379;SDS011;2713;42.680;23.310;2024-01-30T03:53:14;2.60;;;2.40;;
5379;SDS011;2713;42.680;23.310;2024-01-30T03:55:41;2.88;;;2.50;;
5379;SDS011;2713;42.680;23.310;2024-01-30T03:58:08;2.40;;;2.20;;
5379;SDS011;2713;42.680;23.310;2024-01-30T04:00:35;2.50;;;2.30;;
5379;SDS011;2713;42.680;23.310;2024-01-30T04:03:01;2.80;;;2.20;;
5379;SDS011;2713;42.680;23.310;2024-01-30T04:05:30;2.30;;;2.10;;
5379;SDS011;2713;42.680;23.310;2024-01-30T04:07:56;2.38;;;2.28;;
5379;SDS011;2713;42.680;23.310;2024-01-30T04:10:23;2.58;;;2.38;;
5379;SDS011;2713;42.680;23.310;2024-01-30T04:12:50;2.83;;;2.20;;
5379;SDS011;2713;42.680;23.310;2024-01-30T04:15:19;3.95;;;3.65;;
5379;SDS011;2713;42.680;23.310;2024-01-30T04:17:46;2.80;;;2.60;;
5379;SDS011;2713;42.680;23.310;2024-01-30T04:20:13;3.33;;;3.03;;
5379;SDS011;2713;42.680;23.310;2024-01-30T04:22:43;2.72;;;2.53;;
5379;SDS011;2713;42.680;23.310;2024-01-30T04:25:10;4.82;;;3.63;;
5379;SDS011;2713;42.680;23.310;2024-01-30T04:27:37;3.35;;;2.78;;
5379;SDS011;2713;42.680;23.310;2024-01-30T04:30:04;3.13;;;2.80;;
5379;SDS011;2713;42.680;23.310;2024-01-30T04:32:32;3.42;;;2.53;;
5379;SDS011;2713;42.680;23.310;2024-01-30T04:34:59;3.03;;;2.75;;
5379;SDS011;2713;42.680;23.310;2024-01-30T04:37:26;3.72;;;2.88;;
5379;SDS011;2713;42.680;23.310;2024-01-30T04:39:54;3.40;;;3.10;;
5379;SDS011;2713;42.680;23.310;2024-01-30T04:42:21;3.65;;;3.35;;
5379;SDS011;2713;42.680;23.310;2024-01-30T04:44:47;3.20;;;2.90;;
5379;SDS011;2713;42.680;23.310;2024-01-30T04:47:14;2.90;;;2.70;;
5379;SDS011;2713;42.680;23.310;2024-01-30T04:49:41;3.70;;;3.05;;
5379;SDS011;2713;42.680;23.310;2024-01-30T04:52:08;3.03;;;2.70;;
5379;SDS011;2713;42.680;23.310;2024-01-30T04:54:35;5.10;;;2.70;;
5379;SDS011;2713;42.680;23.310;2024-01-30T04:57:03;5.47;;;2.90;;
5379;SDS011;2713;42.680;23.310;2024-01-30T04:59:34;3.40;;;2.55;;
5379;SDS011;2713;42.680;23.310;2024-01-30T05:02:01;3.47;;;3.10;;
5379;SDS011;2713;42.680;23.310;2024-01-30T05:04:28;4.35;;;2.90;;
5379;SDS011;2713;42.680;23.310;2024-01-30T05:06:55;2.90;;;2.60;;
5379;SDS011;2713;42.680;23.310;2024-01-30T05:09:21;4.38;;;3.03;;
5379;SDS011;2713;42.680;23.310;2024-01-30T05:11:48;4.47;;;2.40;;
5379;SDS011;2713;42.680;23.310;2024-01-30T05:14:16;3.67;;;3.45;;
5379;SDS011;2713;42.680;23.310;2024-01-30T05:16:43;4.70;;;3.35;;
5379;SDS011;2713;42.680;23.310;2024-01-30T05:19:12;4.07;;;3.40;;
5379;SDS011;2713;42.680;23.310;2024-01-30T05:21:39;6.18;;;2.92;;
5379;SDS011;2713;42.680;23.310;2024-01-30T05:24:06;4.10;;;2.80;;
5379;SDS011;2713;42.680;23.310;2024-01-30T05:26:35;3.75;;;2.85;;
5379;SDS011;2713;42.680;23.310;2024-01-30T05:29:01;6.10;;;3.05;;
5379;SDS011;2713;42.680;23.310;2024-01-30T05:31:30;3.40;;;3.10;;
5379;SDS011;2713;42.680;23.310;2024-01-30T05:33:56;7.82;;;3.42;;
5379;SDS011;2713;42.680;23.310;2024-01-30T05:36:23;3.47;;;2.95;;
5379;SDS011;2713;42.680;23.310;2024-01-30T05:38:50;3.67;;;3.38;;
5379;SDS011;2713;42.680;23.310;2024-01-30T05:41:17;3.67;;;3.20;;
5379;SDS011;2713;42.680;23.310;2024-01-30T05:43:43;5.68;;;3.85;;
5379;SDS011;2713;42.680;23.310;2024-01-30T05:46:10;4.82;;;4.03;;
5379;SDS011;2713;42.680;23.310;2024-01-30T05:48:38;5.25;;;3.90;;
5379;SDS011;2713;42.680;23.310;2024-01-30T05:51:06;3.70;;;3.40;;
5379;SDS011;2713;42.680;23.310;2024-01-30T05:53:33;5.07;;;3.95;;
5379;SDS011;2713;42.680;23.310;2024-01-30T05:56:01;5.07;;;3.60;;
5379;SDS011;2713;42.680;23.310;2024-01-30T05:58:28;4.80;;;2.97;;
5379;SDS011;2713;42.680;23.310;2024-01-30T06:00:56;6.95;;;3.88;;
5379;SDS011;2713;42.680;23.310;2024-01-30T06:03:23;4.20;;;3.72;;
5379;SDS011;2713;42.680;23.310;2024-01-30T06:05:51;3.67;;;3.38;;
5379;SDS011;2713;42.680;23.310;2024-01-30T06:08:18;3.25;;;2.95;;
5379;SDS011;2713;42.680;23.310;2024-01-30T06:10:45;6.70;;;3.13;;
5379;SDS011;2713;42.680;23.310;2024-01-30T06:13:12;4.63;;;3.42;;
5379;SDS011;2713;42.680;23.310;2024-01-30T06:15:39;4.10;;;3.75;;
5379;SDS011;2713;42.680;23.310;2024-01-30T06:18:06;5.70;;;3.63;;
5379;SDS011;2713;42.680;23.310;2024-01-30T06:20:33;4.85;;;3.30;;
5379;SDS011;2713;42.680;23.310;2024-01-30T06:23:02;4.40;;;3.60;;
5379;SDS011;2713;42.680;23.310;2024-01-30T06:25:28;5.63;;;3.50;;
5379;SDS011;2713;42.680;23.310;2024-01-30T06:27:55;5.90;;;3.63;;
5379;SDS011;2713;42.680;23.310;2024-01-30T06:30:22;7.28;;;4.00;;
5379;SDS011;2713;42.680;23.310;2024-01-30T06:32:49;4.97;;;4.05;;
5379;SDS011;2713;42.680;23.310;2024-01-30T06:35:15;5.30;;;4.60;;
5379;SDS011;2713;42.680;23.310;2024-01-30T06:37:42;5.10;;;4.25;;
5379;SDS011;2713;42.680;23.310;2024-01-30T06:40:11;5.78;;;4.00;;
5379;SDS011;2713;42.680;23.310;2024-01-30T06:42:38;5.55;;;4.05;;
5379;SDS011;2713;42.680;23.310;2024-01-30T06:45:05;8.70;;;3.97;;
5379;SDS011;2713;42.680;23.310;2024-01-30T06:47:33;6.65;;;4.20;;
5379;SDS011;2713;42.680;23.310;2024-01-30T06:50:00;7.18;;;4.40;;
5379;SDS011;2713;42.680;23.310;2024-01-30T06:52:28;8.85;;;4.95;;
5379;SDS011;2713;42.680;23.310;2024-01-30T06:54:55;7.95;;;4.75;;
5379;SDS011;2713;42.680;23.310;2024-01-30T06:57:23;4.13;;;3.80;;
5379;SDS011;2713;42.680;23.310;2024-01-30T06:59:51;5.88;;;3.45;;
5379;SDS011;2713;42.680;23.310;2024-01-30T07:02:18;4.50;;;3.15;;
5379;SDS011;2713;42.680;23.310;2024-01-30T07:04:44;6.25;;;3.20;;
5379;SDS011;2713;42.680;23.310;2024-01-30T07:07:11;6.32;;;4.40;;
5379;SDS011;2713;42.680;23.310;2024-01-30T07:09:40;4.28;;;3.20;;
5379;SDS011;2713;42.680;23.310;2024-01-30T07:12:07;3.08;;;2.60;;
5379;SDS011;2713;42.680;23.310;2024-01-30T07:14:35;3.15;;;2.90;;
5379;SDS011;2713;42.680;23.310;2024-01-30T07:17:03;4.05;;;2.78;;
5379;SDS011;2713;42.680;23.310;2024-01-30T07:19:30;2.85;;;2.60;;
5379;SDS011;2713;42.680;23.310;2024-01-30T07:21:56;3.63;;;3.30;;
5379;SDS011;2713;42.680;23.310;2024-01-30T07:24:23;2.92;;;2.67;;
5379;SDS011;2713;42.680;23.310;2024-01-30T07:26:50;2.15;;;2.00;;
5379;SDS011;2713;42.680;23.310;2024-01-30T07:29:17;2.83;;;2.50;;
5379;SDS011;2713;42.680;23.310;2024-01-30T07:31:45;6.75;;;2.22;;
5379;SDS011;2713;42.680;23.310;2024-01-30T07:34:12;2.70;;;2.50;;
5379;SDS011;2713;42.680;23.310;2024-01-30T07:36:39;2.28;;;2.10;;
5379;SDS011;2713;42.680;23.310;2024-01-30T07:39:05;2.50;;;2.30;;
5379;SDS011;2713;42.680;23.310;2024-01-30T07:41:32;2.30;;;1.95;;
5379;SDS011;2713;42.680;23.310;2024-01-30T07:43:59;2.40;;;2.20;;
5379;SDS011;2713;42.680;23.310;2024-01-30T07:46:26;2.13;;;2.00;;
5379;SDS011;2713;42.680;23.310;2024-01-30T07:48:54;2.40;;;2.30;;
5379;SDS011;2713;42.680;23.310;2024-01-30T07:51:22;5.32;;;2.70;;
5379;SDS011;2713;42.680;23.310;2024-01-30T07:53:49;3.90;;;3.22;;
5379;SDS011;2713;42.680;23.310;2024-01-30T07:56:15;2.88;;;2.67;;
5379;SDS011;2713;42.680;23.310;2024-01-30T07:58:42;2.35;;;2.25;;
5379;SDS011;2713;42.680;23.310;2024-01-30T08:01:09;2.60;;;2.40;;
5379;SDS011;2713;42.680;23.310;2024-01-30T08:03:36;2.38;;;2.17;;
5379;SDS011;2713;42.680;23.310;2024-01-30T08:06:06;2.78;;;2.58;;
5379;SDS011;2713;42.680;23.310;2024-01-30T08:08:33;10.55;;;2.60;;
5379;SDS011;2713;42.680;23.310;2024-01-30T08:11:00;2.92;;;2.65;;
5379;SDS011;2713;42.680;23.310;2024-01-30T08:13:27;4.40;;;3.13;;
5379;SDS011;2713;42.680;23.310;2024-01-30T08:15:54;3.72;;;3.00;;
5379;SDS011;2713;42.680;23.310;2024-01-30T08:18:20;3.20;;;2.60;;
5379;SDS011;2713;42.680;23.310;2024-01-30T08:20:47;2.95;;;2.75;;
5379;SDS011;2713;42.680;23.310;2024-01-30T08:23:15;3.30;;;2.97;;
5379;SDS011;2713;42.680;23.310;2024-01-30T08:25:42;2.75;;;2.55;;
5379;SDS011;2713;42.680;23.310;2024-01-30T08:28:09;2.80;;;2.55;;
5379;SDS011;2713;42.680;23.310;2024-01-30T08:30:36;3.03;;;2.70;;
5379;SDS011;2713;42.680;23.310;2024-01-30T08:33:04;4.32;;;2.70;;
5379;SDS011;2713;42.680;23.310;2024-01-30T08:35:31;3.30;;;3.00;;
5379;SDS011;2713;42.680;23.310;2024-01-30T08:37:58;3.50;;;3.15;;
5379;SDS011;2713;42.680;23.310;2024-01-30T08:40:26;3.75;;;3.45;;
5379;SDS011;2713;42.680;23.310;2024-01-30T08:42:53;3.40;;;3.10;;
5379;SDS011;2713;42.680;23.310;2024-01-30T08:45:20;4.60;;;3.47;;
5379;SDS011;2713;42.680;23.310;2024-01-30T08:47:47;5.67;;;4.70;;
5379;SDS011;2713;42.680;23.310;2024-01-30T08:50:14;11.57;;;3.90;;
5379;SDS011;2713;42.680;23.310;2024-01-30T08:52:41;4.80;;;3.70;;
5379;SDS011;2713;42.680;23.310;2024-01-30T08:55:07;6.93;;;4.60;;
5379;SDS011;2713;42.680;23.310;2024-01-30T08:57:36;4.03;;;3.63;;
5379;SDS011;2713;42.680;23.310;2024-01-30T09:00:03;4.20;;;3.80;;
5379;SDS011;2713;42.680;23.310;2024-01-30T09:02:31;4.30;;;3.80;;
5379;SDS011;2713;42.680;23.310;2024-01-30T09:04:58;4.00;;;3.60;;
5379;SDS011;2713;42.680;23.310;2024-01-30T09:07:25;3.83;;;3.43;;
5379;SDS011;2713;42.680;23.310;2024-01-30T09:09:52;5.13;;;3.63;;
5379;SDS011;2713;42.680;23.310;2024-01-30T09:12:18;4.55;;;3.60;;
5379;SDS011;2713;42.680;23.310;2024-01-30T09:14:47;7.90;;;4.60;;
5379;SDS011;2713;42.680;23.310;2024-01-30T09:17:13;4.90;;;4.30;;
5379;SDS011;2713;42.680;23.310;2024-01-30T09:19:40;3.50;;;3.10;;
5379;SDS011;2713;42.680;23.310;2024-01-30T09:22:07;4.55;;;3.30;;
5379;SDS011;2713;42.680;23.310;2024-01-30T09:24:34;3.05;;;2.80;;
5379;SDS011;2713;42.680;23.310;2024-01-30T09:27:00;4.60;;;3.65;;
5379;SDS011;2713;42.680;23.310;2024-01-30T09:29:27;4.20;;;3.80;;
5379;SDS011;2713;42.680;23.310;2024-01-30T09:31:55;3.50;;;3.20;;
5379;SDS011;2713;42.680;23.310;2024-01-30T09:34:23;7.22;;;3.78;;
5379;SDS011;2713;42.680;23.310;2024-01-30T09:36:49;3.85;;;3.55;;
5379;SDS011;2713;42.680;23.310;2024-01-30T09:39:16;8.43;;;3.60;;
5379;SDS011;2713;42.680;23.310;2024-01-30T09:41:45;6.47;;;4.00;;
5379;SDS011;2713;42.680;23.310;2024-01-30T09:44:18;10.02;;;5.00;;
5379;SDS011;2713;42.680;23.310;2024-01-30T09:46:46;7.20;;;3.67;;
5379;SDS011;2713;42.680;23.310;2024-01-30T09:49:15;4.60;;;3.60;;
5379;SDS011;2713;42.680;23.310;2024-01-30T09:51:44;4.00;;;3.20;;
5379;SDS011;2713;42.680;23.310;2024-01-30T09:54:12;5.30;;;3.72;;
5379;SDS011;2713;42.680;23.310;2024-01-30T09:56:40;4.03;;;3.63;;
5379;SDS011;2713;42.680;23.310;2024-01-30T09:59:07;3.83;;;3.53;;
5379;SDS011;2713;42.680;23.310;2024-01-30T10:01:34;3.47;;;3.17;;
5379;SDS011;2713;42.680;23.310;2024-01-30T10:04:02;3.80;;;2.90;;
5379;SDS011;2713;42.680;23.310;2024-01-30T10:06:31;4.97;;;2.95;;
5379;SDS011;2713;42.680;23.310;2024-01-30T10:08:58;4.47;;;4.07;;
5379;SDS011;2713;42.680;23.310;2024-01-30T10:11:25;4.15;;;3.40;;
5379;SDS011;2713;42.680;23.310;2024-01-30T10:13:52;3.30;;;3.00;;
5379;SDS011;2713;42.680;23.310;2024-01-30T10:16:19;3.25;;;2.70;;
5379;SDS011;2713;42.680;23.310;2024-01-30T10:18:45;4.80;;;2.70;;
5379;SDS011;2713;42.680;23.310;2024-01-30T10:21:12;2.88;;;2.67;;
5379;SDS011;2713;42.680;23.310;2024-01-30T10:23:41;6.80;;;3.30;;
5379;SDS011;2713;42.680;23.310;2024-01-30T10:26:09;3.45;;;2.67;;
5379;SDS011;2713;42.680;23.310;2024-01-30T10:28:37;3.63;;;2.60;;
5379;SDS011;2713;42.680;23.310;2024-01-30T10:31:04;2.70;;;2.50;;
5379;SDS011;2713;42.680;23.310;2024-01-30T10:33:30;3.35;;;2.90;;
5379;SDS011;2713;42.680;23.310;2024-01-30T10:35:59;3.38;;;3.05;;
5379;SDS011;2713;42.680;23.310;2024-01-30T10:38:28;3.38;;;3.13;;
5379;SDS011;2713;42.680;23.310;2024-01-30T10:40:57;4.75;;;3.30;;
5379;SDS011;2713;42.680;23.310;2024-01-30T10:43:28;3.05;;;2.75;;
5379;SDS011;2713;42.680;23.310;2024-01-30T10:45:59;7.00;;;3.60;;
5379;SDS011;2713;42.680;23.310;2024-01-30T10:48:40;4.78;;;3.25;;
5379;SDS011;2713;42.680;23.310;2024-01-30T10:51:09;2.97;;;2.72;;
5379;SDS011;2713;42.680;23.310;2024-01-30T10:53:38;3.03;;;2.80;;
5379;SDS011;2713;42.680;23.310;2024-01-30T10:56:07;2.83;;;2.60;;
5379;SDS011;2713;42.680;23.310;2024-01-30T10:58:35;3.72;;;2.70;;
5379;SDS011;2713;42.680;23.310;2024-01-30T11:01:02;2.80;;;2.60;;
5379;SDS011;2713;42.680;23.310;2024-01-30T11:03:31;3.58;;;2.70;;
5379;SDS011;2713;42.680;23.310;2024-01-30T11:06:00;2.97;;;2.65;;
5379;SDS011;2713;42.680;23.310;2024-01-30T11:08:27;3.58;;;2.90;;
5379;SDS011;2713;42.680;23.310;2024-01-30T11:10:55;2.75;;;2.50;;
5379;SDS011;2713;42.680;23.310;2024-01-30T11:13:26;9.02;;;4.00;;
5379;SDS011;2713;42.680;23.310;2024-01-30T11:15:54;2.92;;;2.72;;
5379;SDS011;2713;42.680;23.310;2024-01-30T11:18:24;3.08;;;2.78;;
5379;SDS011;2713;42.680;23.310;2024-01-30T11:20:52;3.03;;;2.72;;
5379;SDS011;2713;42.680;23.310;2024-01-30T11:23:18;2.67;;;2.45;;
5379;SDS011;2713;42.680;23.310;2024-01-30T11:25:48;2.67;;;2.47;;
5379;SDS011;2713;42.680;23.310;2024-01-30T11:28:15;2.78;;;2.33;;
5379;SDS011;2713;42.680;23.310;2024-01-30T11:30:44;3.03;;;2.72;;
5379;SDS011;2713;42.680;23.310;2024-01-30T11:33:13;3.70;;;3.20;;
5379;SDS011;2713;42.680;23.310;2024-01-30T11:35:41;2.92;;;2.67;;
5379;SDS011;2713;42.680;23.310;2024-01-30T11:38:09;2.78;;;2.47;;
5379;SDS011;2713;42.680;23.310;2024-01-30T11:40:38;6.70;;;2.55;;
5379;SDS011;2713;42.680;23.310;2024-01-30T11:43:05;2.65;;;2.45;;
5379;SDS011;2713;42.680;23.310;2024-01-30T11:45:34;2.97;;;2.78;;
5379;SDS011;2713;42.680;23.310;2024-01-30T11:48:04;2.83;;;2.63;;
5379;SDS011;2713;42.680;23.310;2024-01-30T11:50:32;2.75;;;2.55;;
5379;SDS011;2713;42.680;23.310;2024-01-30T11:53:00;2.35;;;2.15;;
5379;SDS011;2713;42.680;23.310;2024-01-30T11:55:28;5.75;;;2.75;;
5379;SDS011;2713;42.680;23.310;2024-01-30T11:57:55;3.97;;;2.83;;
5379;SDS011;2713;42.680;23.310;2024-01-30T12:00:22;2.30;;;2.20;;
5379;SDS011;2713;42.680;23.310;2024-01-30T12:02:49;2.50;;;2.30;;
5379;SDS011;2713;42.680;23.310;2024-01-30T12:05:18;2.80;;;2.60;;
5379;SDS011;2713;42.680;23.310;2024-01-30T12:07:45;3.35;;;3.05;;
5379;SDS011;2713;42.680;23.310;2024-01-30T12:10:12;4.30;;;2.90;;
5379;SDS011;2713;42.680;23.310;2024-01-30T12:12:40;3.33;;;3.03;;
5379;SDS011;2713;42.680;23.310;2024-01-30T12:15:08;2.63;;;2.42;;
5379;SDS011;2713;42.680;23.310;2024-01-30T12:17:36;3.03;;;2.80;;
5379;SDS011;2713;42.680;23.310;2024-01-30T12:20:03;3.60;;;3.30;;
5379;SDS011;2713;42.680;23.310;2024-01-30T12:22:34;3.65;;;3.15;;
5379;SDS011;2713;42.680;23.310;2024-01-30T12:25:04;3.13;;;2.92;;
5379;SDS011;2713;42.680;23.310;2024-01-30T12:27:31;3.70;;;3.40;;
5379;SDS011;2713;42.680;23.310;2024-01-30T12:29:58;3.58;;;3.25;;
5379;SDS011;2713;42.680;23.310;2024-01-30T12:32:25;4.80;;;2.70;;
5379;SDS011;2713;42.680;23.310;2024-01-30T12:34:54;3.47;;;3.00;;
5379;SDS011;2713;42.680;23.310;2024-01-30T12:37:22;3.40;;;3.10;;
5379;SDS011;2713;42.680;23.310;2024-01-30T12:39:52;3.00;;;2.80;;
5379;SDS011;2713;42.680;23.310;2024-01-30T12:42:20;4.45;;;3.30;;
5379;SDS011;2713;42.680;23.310;2024-01-30T12:44:47;5.22;;;4.10;;
5379;SDS011;2713;42.680;23.310;2024-01-30T12:47:14;3.55;;;3.25;;
5379;SDS011;2713;42.680;23.310;2024-01-30T12:49:42;3.50;;;3.20;;
5379;SDS011;2713;42.680;23.310;2024-01-30T12:52:09;3.25;;;2.90;;
5379;SDS011;2713;42.680;23.310;2024-01-30T12:54:36;3.75;;;3.10;;
5379;SDS011;2713;42.680;23.310;2024-01-30T12:57:05;3.10;;;2.90;;
5379;SDS011;2713;42.680;23.310;2024-01-30T12:59:32;3.67;;;3.38;;
5379;SDS011;2713;42.680;23.310;2024-01-30T13:02:00;3.45;;;3.00;;
5379;SDS011;2713;42.680;23.310;2024-01-30T13:04:28;3.10;;;2.90;;
5379;SDS011;2713;42.680;23.310;2024-01-30T13:06:55;6.80;;;3.80;;
5379;SDS011;2713;42.680;23.310;2024-01-30T13:09:21;4.15;;;3.13;;
5379;SDS011;2713;42.680;23.310;2024-01-30T13:11:49;3.00;;;2.70;;
5379;SDS011;2713;42.680;23.310;2024-01-30T13:14:17;5.70;;;3.58;;
5379;SDS011;2713;42.680;23.310;2024-01-30T13:16:44;3.92;;;3.63;;
5379;SDS011;2713;42.680;23.310;2024-01-30T13:19:11;3.97;;;3.63;;
5379;SDS011;2713;42.680;23.310;2024-01-30T13:21:38;6.43;;;3.55;;
5379;SDS011;2713;42.680;23.310;2024-01-30T13:24:05;6.10;;;3.20;;
5379;SDS011;2713;42.680;23.310;2024-01-30T13:26:32;3.53;;;3.08;;
5379;SDS011;2713;42.680;23.310;2024-01-30T13:28:59;3.92;;;3.50;;
5379;SDS011;2713;42.680;23.310;2024-01-30T13:31:28;4.13;;;3.72;;
5379;SDS011;2713;42.680;23.310;2024-01-30T13:33:54;4.22;;;3.75;;
5379;SDS011;2713;42.680;23.310;2024-01-30T13:36:21;5.28;;;3.33;;
5379;SDS011;2713;42.680;23.310;2024-01-30T13:38:49;3.80;;;3.45;;
5379;SDS011;2713;42.680;23.310;2024-01-30T13:41:15;6.70;;;3.60;;
5379;SDS011;2713;42.680;23.310;2024-01-30T13:43:43;4.60;;;3.60;;
5379;SDS011;2713;42.680;23.310;2024-01-30T13:46:10;5.45;;;3.47;;
5379;SDS011;2713;42.680;23.310;2024-01-30T13:48:38;4.43;;;3.60;;
5379;SDS011;2713;42.680;23.310;2024-01-30T13:51:05;4.30;;;3.30;;
5379;SDS011;2713;42.680;23.310;2024-01-30T13:53:32;4.57;;;3.97;;
5379;SDS011;2713;42.680;23.310;2024-01-30T13:55:59;16.42;;;4.93;;
5379;SDS011;2713;42.680;23.310;2024-01-30T13:58:25;5.70;;;3.65;;
5379;SDS011;2713;42.680;23.310;2024-01-30T14:00:52;5.00;;;3.90;;
5379;SDS011;2713;42.680;23.310;2024-01-30T14:03:19;5.38;;;3.65;;
5379;SDS011;2713;42.680;23.310;2024-01-30T14:05:47;5.07;;;4.00;;
5379;SDS011;2713;42.680;23.310;2024-01-30T14:08:14;4.03;;;3.45;;
5379;SDS011;2713;42.680;23.310;2024-01-30T14:10:41;5.30;;;4.07;;
5379;SDS011;2713;42.680;23.310;2024-01-30T14:13:08;4.80;;;3.60;;
5379;SDS011;2713;42.680;23.310;2024-01-30T14:15:36;4.95;;;3.40;;
5379;SDS011;2713;42.680;23.310;2024-01-30T14:18:03;3.47;;;3.15;;
5379;SDS011;2713;42.680;23.310;2024-01-30T14:20:33;5.22;;;4.03;;
5379;SDS011;2713;42.680;23.310;2024-01-30T14:23:01;5.80;;;3.55;;
5379;SDS011;2713;42.680;23.310;2024-01-30T14:25:28;4.57;;;3.42;;
5379;SDS011;2713;42.680;23.310;2024-01-30T14:27:55;4.43;;;3.60;;
5379;SDS011;2713;42.680;23.310;2024-01-30T14:30:22;4.20;;;3.70;;
5379;SDS011;2713;42.680;23.310;2024-01-30T14:32:48;5.60;;;4.60;;
5379;SDS011;2713;42.680;23.310;2024-01-30T14:35:15;5.70;;;4.20;;
5379;SDS011;2713;42.680;23.310;2024-01-30T14:37:42;4.90;;;4.40;;
5379;SDS011;2713;42.680;23.310;2024-01-30T14:40:11;3.60;;;3.25;;
5379;SDS011;2713;42.680;23.310;2024-01-30T14:42:38;5.07;;;3.25;;
5379;SDS011;2713;42.680;23.310;2024-01-30T14:45:05;4.20;;;3.80;;
5379;SDS011;2713;42.680;23.310;2024-01-30T14:47:33;4.78;;;4.38;;
5379;SDS011;2713;42.680;23.310;2024-01-30T14:50:00;4.32;;;3.42;;
5379;SDS011;2713;42.680;23.310;2024-01-30T14:52:27;3.70;;;3.40;;
5379;SDS011;2713;42.680;23.310;2024-01-30T14:54:54;4.28;;;3.85;;
5379;SDS011;2713;42.680;23.310;2024-01-30T14:57:23;3.90;;;3.50;;
5379;SDS011;2713;42.680;23.310;2024-01-30T14:59:50;4.60;;;3.38;;